Time;durP1;ratioP1;P1;durP2;ratioP2;P2;SDS_P1;SDS_P2;PMS_P1;PMS_P2;Temp;Humidity;BMP_temperature;BMP_pressure;BME280_temperature;BME280_humidity;BME280_pressure;Samples;Min_cycle;Max_cycle;Signal;HPM_P1;HPM_P2
2023/01/23 00:00:58;;;;;;;12.65;6.10;;;2.80;99.90;;;;;;5045530;28;20037;-80
2023/01/23 00:03:24;;;;;;;13.80;6.25;;;2.80;99.90;;;;;;5050536;28;20041;-80
2023/01/23 00:06:01;;;;;;;14.30;6.40;;;2.80;99.90;;;;;;5047851;28;20040;-80
2023/01/23 00:08:28;;;;;;;14.35;6.00;;;2.80;99.90;;;;;;5032950;28;20041;-80
2023/01/23 00:10:54;;;;;;;11.18;6.18;;;2.80;99.90;;;;;;5032867;28;20049;-79
2023/01/23 00:13:19;;;;;;;14.18;6.97;;;2.80;99.90;;;;;;5033113;28;20028;-80
2023/01/23 00:15:46;;;;;;;12.43;6.47;;;2.80;99.90;;;;;;5023962;28;20119;-80
2023/01/23 00:18:12;;;;;;;12.57;6.28;;;2.80;99.90;;;;;;5032844;28;20040;-80
2023/01/23 00:20:39;;;;;;;16.40;6.40;;;2.80;99.90;;;;;;5045479;28;20491;-80
2023/01/23 00:23:04;;;;;;;14.70;5.90;;;2.80;99.90;;;;;;5046157;28;20381;-80
2023/01/23 00:25:31;;;;;;;12.82;6.57;;;2.80;99.90;;;;;;5050373;28;20045;-80
2023/01/23 00:27:57;;;;;;;13.82;7.88;;;2.80;99.90;;;;;;5046292;28;20079;-80
2023/01/23 00:30:23;;;;;;;10.88;6.20;;;2.80;99.90;;;;;;5049017;28;20072;-80
2023/01/23 00:32:48;;;;;;;12.30;6.38;;;2.80;99.90;;;;;;5032767;28;20037;-80
2023/01/23 00:35:14;;;;;;;14.98;6.22;;;2.80;99.90;;;;;;5030733;28;20045;-80
2023/01/23 00:37:39;;;;;;;12.45;5.93;;;2.80;99.90;;;;;;5028141;28;20071;-80
2023/01/23 00:40:06;;;;;;;11.93;6.13;;;2.80;99.90;;;;;;5031516;28;20558;-80
2023/01/23 00:42:32;;;;;;;15.60;6.43;;;2.80;99.90;;;;;;5042534;28;20043;-80
2023/01/23 00:44:57;;;;;;;15.18;6.07;;;2.80;99.90;;;;;;5047779;28;20833;-80
2023/01/23 00:47:23;;;;;;;11.80;6.35;;;2.80;99.90;;;;;;5044817;28;20441;-80
2023/01/23 00:49:48;;;;;;;12.90;6.22;;;2.80;99.90;;;;;;5050425;28;20537;-80
2023/01/23 00:52:14;;;;;;;14.25;6.25;;;2.80;99.90;;;;;;5039314;28;20041;-80
2023/01/23 00:54:40;;;;;;;13.73;6.28;;;2.80;99.90;;;;;;5050877;28;20041;-80
2023/01/23 00:57:05;;;;;;;12.95;6.00;;;2.80;99.90;;;;;;5046422;28;20056;-80
2023/01/23 00:59:31;;;;;;;11.60;5.90;;;2.80;99.90;;;;;;5042910;28;20041;-80
2023/01/23 01:01:57;;;;;;;13.30;6.00;;;2.80;99.90;;;;;;5042908;28;20043;-80
2023/01/23 01:04:22;;;;;;;14.30;6.68;;;2.80;99.90;;;;;;5051430;28;20750;-80
2023/01/23 01:06:48;;;;;;;15.05;6.50;;;2.80;99.90;;;;;;5034911;28;20064;-80
2023/01/23 01:09:13;;;;;;;15.68;6.22;;;2.80;99.90;;;;;;5042079;28;20360;-80
2023/01/23 01:11:39;;;;;;;11.70;6.30;;;2.80;99.90;;;;;;5061081;28;20400;-80
2023/01/23 01:14:05;;;;;;;13.25;5.90;;;2.80;99.90;;;;;;5050014;28;20087;-80
2023/01/23 01:16:31;;;;;;;10.73;5.78;;;2.80;99.90;;;;;;5044148;28;20033;-80
2023/01/23 01:18:56;;;;;;;13.52;6.45;;;3.40;99.90;;;;;;5067077;28;20033;-80
2023/01/23 01:21:22;;;;;;;11.65;5.70;;;2.80;99.90;;;;;;5041495;28;20511;-80
2023/01/23 01:23:48;;;;;;;9.30;5.45;;;2.80;99.90;;;;;;5047795;28;20095;-80
2023/01/23 01:26:14;;;;;;;15.25;6.57;;;2.80;99.90;;;;;;5050056;28;20048;-80
2023/01/23 01:28:41;;;;;;;16.52;6.82;;;2.80;99.90;;;;;;5049216;28;20502;-80
2023/01/23 01:31:12;;;;;;;13.68;6.60;;;2.80;99.90;;;;;;5049693;28;20037;-80
2023/01/23 01:33:39;;;;;;;15.38;6.43;;;2.80;99.90;;;;;;5049323;28;20052;-80
2023/01/23 01:36:12;;;;;;;13.98;6.60;;;2.80;99.90;;;;;;5041010;28;20095;-80
2023/01/23 01:38:38;;;;;;;13.23;7.22;;;2.80;99.90;;;;;;5042534;28;20048;-80
2023/01/23 01:41:05;;;;;;;15.32;6.03;;;2.80;99.90;;;;;;5039619;28;20038;-80
2023/01/23 01:43:32;;;;;;;12.48;5.70;;;2.80;99.90;;;;;;5027843;28;20116;-81
2023/01/23 01:46:10;;;;;;;15.57;7.35;;;2.80;99.90;;;;;;5041641;28;20037;-80
2023/01/23 01:49:04;;;;;;;12.43;7.05;;;2.80;99.90;;;;;;5062753;28;20116;-80
2023/01/23 01:51:31;;;;;;;14.75;6.57;;;2.80;99.90;;;;;;5039399;28;20098;-80
2023/01/23 01:54:12;;;;;;;15.02;7.00;;;2.80;99.90;;;;;;5032546;28;20049;-80
2023/01/23 01:56:59;;;;;;;11.20;6.43;;;2.80;99.90;;;;;;5042999;28;20045;-80
2023/01/23 01:59:29;;;;;;;13.65;6.25;;;2.80;99.90;;;;;;5048782;28;20041;-80
2023/01/23 02:02:03;;;;;;;16.45;7.35;;;2.80;99.90;;;;;;5045564;28;20483;-80
2023/01/23 02:04:35;;;;;;;;;;;2.80;99.90;;;;;;5047243;28;20037;-81
2023/01/23 02:07:04;;;;;;;17.40;7.00;;;2.80;99.90;;;;;;5043185;28;20391;-80
2023/01/23 02:09:32;;;;;;;13.10;7.10;;;2.80;99.90;;;;;;5045853;28;20235;-80
2023/01/23 02:12:00;;;;;;;13.70;6.30;;;2.80;99.90;;;;;;5039337;28;20095;-81
2023/01/23 02:14:26;;;;;;;16.55;7.20;;;2.80;99.90;;;;;;5045517;28;20041;-80
2023/01/23 02:16:55;;;;;;;16.60;8.13;;;4.00;99.90;;;;;;5048772;28;20223;-81
2023/01/23 02:19:35;;;;;;;16.00;7.00;;;2.80;99.90;;;;;;5046435;28;20029;-80
2023/01/23 02:22:23;;;;;;;13.75;6.85;;;2.80;99.90;;;;;;5052774;28;20063;-80
2023/01/23 02:25:14;;;;;;;14.00;7.13;;;2.80;99.90;;;;;;5046596;28;20084;-80
2023/01/23 02:27:39;;;;;;;17.70;7.25;;;2.80;99.90;;;;;;5049994;28;20045;-80
2023/01/23 02:30:07;;;;;;;14.52;7.13;;;2.80;99.90;;;;;;5047561;28;20097;-80
2023/01/23 02:32:34;;;;;;;13.07;7.10;;;2.80;99.90;;;;;;5039859;28;20068;-80
2023/01/23 02:35:25;;;;;;;14.77;8.07;;;2.80;99.90;;;;;;5034043;28;20111;-80
2023/01/23 02:37:54;;;;;;;14.60;7.03;;;2.80;99.90;;;;;;5039574;28;20040;-80
2023/01/23 02:40:35;;;;;;;14.95;7.60;;;2.80;99.90;;;;;;5049269;28;20036;-80
2023/01/23 02:43:06;;;;;;;16.55;7.93;;;2.80;99.90;;;;;;5060226;28;20041;-80
2023/01/23 02:45:32;;;;;;;16.02;7.75;;;2.80;99.90;;;;;;5045443;28;20226;-80
2023/01/23 02:48:00;;;;;;;18.40;7.97;;;2.80;99.90;;;;;;5029039;28;20040;-80
2023/01/23 02:50:29;;;;;;;17.17;8.23;;;2.70;99.90;;;;;;5041683;28;20056;-80
2023/01/23 02:52:56;;;;;;;19.17;8.52;;;2.70;99.90;;;;;;5041843;28;20072;-80
2023/01/23 02:55:22;;;;;;;14.27;7.60;;;2.70;99.90;;;;;;5046358;28;20041;-80
2023/01/23 02:57:48;;;;;;;15.10;8.38;;;2.70;99.90;;;;;;5048760;28;20055;-80
2023/01/23 03:00:19;;;;;;;14.73;7.45;;;2.70;99.90;;;;;;5045587;28;20120;-81
2023/01/23 03:02:50;;;;;;;17.40;7.68;;;2.70;99.90;;;;;;5043614;28;20040;-81
2023/01/23 03:05:17;;;;;;;16.00;8.93;;;2.70;99.90;;;;;;5046647;28;20736;-80
2023/01/23 03:07:43;;;;;;;13.88;7.63;;;2.70;99.90;;;;;;5040286;28;20069;-81
2023/01/23 03:10:10;;;;;;;16.67;8.18;;;2.70;99.90;;;;;;5052959;28;20056;-81
2023/01/23 03:12:41;;;;;;;16.05;7.93;;;3.20;99.90;;;;;;5043838;28;20476;-81
2023/01/23 03:15:08;;;;;;;17.38;8.02;;;2.70;99.90;;;;;;5049192;28;20037;-80
2023/01/23 03:17:33;;;;;;;16.50;7.95;;;2.70;99.90;;;;;;5037702;28;20047;-80
2023/01/23 03:20:00;;;;;;;13.38;7.60;;;2.70;99.90;;;;;;5048770;28;20036;-80
2023/01/23 03:22:25;;;;;;;15.43;8.10;;;2.70;99.90;;;;;;5039855;28;20128;-81
2023/01/23 03:24:51;;;;;;;18.05;8.52;;;2.70;99.90;;;;;;5042343;28;20235;-80
2023/01/23 03:27:17;;;;;;;15.63;8.38;;;2.70;99.90;;;;;;5049471;28;20044;-81
2023/01/23 03:32:28;;;;;;;18.30;9.15;;;2.70;99.90;;;;;;5050160;28;20045;-80
2023/01/23 03:34:54;;;;;;;16.63;9.10;;;2.70;99.90;;;;;;5047848;28;20119;-80
2023/01/23 03:37:19;;;;;;;17.70;9.07;;;3.10;99.90;;;;;;5048437;28;20464;-80
2023/01/23 03:42:32;;;;;;;13.68;8.25;;;2.70;99.90;;;;;;5042214;28;20124;-80
2023/01/23 03:44:58;;;;;;;18.50;8.25;;;2.70;99.90;;;;;;5052681;28;20033;-81
2023/01/23 03:47:25;;;;;;;15.40;9.05;;;2.70;99.90;;;;;;5029384;28;20450;-80
2023/01/23 03:49:51;;;;;;;18.25;9.30;;;2.70;99.90;;;;;;5041646;28;20095;-80
2023/01/23 03:52:17;;;;;;;15.57;8.68;;;2.70;99.90;;;;;;5042156;28;20128;-80
2023/01/23 03:54:42;;;;;;;16.50;8.90;;;2.70;99.90;;;;;;5046790;28;20156;-80
2023/01/23 03:57:09;;;;;;;16.52;8.85;;;2.70;99.90;;;;;;5045221;28;20071;-80
2023/01/23 03:59:34;;;;;;;19.00;9.05;;;2.70;99.90;;;;;;5051178;28;20044;-80
2023/01/23 04:02:03;;;;;;;18.27;8.60;;;2.70;99.90;;;;;;5044440;28;20041;-81
2023/01/23 04:04:30;;;;;;;18.52;9.60;;;2.70;99.90;;;;;;5049533;28;20432;-80
2023/01/23 04:06:55;;;;;;;19.15;9.52;;;2.70;99.90;;;;;;5044327;28;20083;-81
2023/01/23 04:09:26;;;;;;;15.10;8.65;;;2.70;99.90;;;;;;5046954;28;20037;-81
2023/01/23 04:11:55;;;;;;;16.42;8.50;;;2.70;99.90;;;;;;5046637;28;20042;-80
2023/01/23 04:14:22;;;;;;;18.40;9.50;;;2.70;99.90;;;;;;5048656;28;20052;-80
2023/01/23 04:16:48;;;;;;;20.08;9.15;;;2.70;99.90;;;;;;5034532;28;20095;-81
2023/01/23 04:19:14;;;;;;;17.67;9.23;;;2.70;99.90;;;;;;5051410;28;20033;-80
2023/01/23 04:21:39;;;;;;;18.67;8.73;;;2.70;99.90;;;;;;5046118;28;20143;-80
2023/01/23 04:24:05;;;;;;;20.52;9.25;;;2.70;99.90;;;;;;5045809;28;20593;-81
2023/01/23 04:26:33;;;;;;;14.68;8.52;;;2.70;99.90;;;;;;5046906;28;20045;-80
2023/01/23 04:28:58;;;;;;;16.35;7.93;;;2.70;99.90;;;;;;5049654;28;20037;-80
2023/01/23 04:31:24;;;;;;;18.95;9.50;;;3.20;99.90;;;;;;5043659;28;20530;-80
2023/01/23 04:33:50;;;;;;;17.83;9.05;;;2.70;99.90;;;;;;5047062;28;20913;-80
2023/01/23 04:36:16;;;;;;;22.40;9.60;;;2.70;99.90;;;;;;5043343;28;20037;-80
2023/01/23 04:38:41;;;;;;;16.73;8.43;;;2.70;99.90;;;;;;5045231;28;20059;-80
2023/01/23 04:41:08;;;;;;;15.15;8.73;;;2.70;99.90;;;;;;5050126;28;20036;-81
2023/01/23 04:43:34;;;;;;;17.00;9.63;;;2.70;99.90;;;;;;5046079;28;20088;-80
2023/01/23 04:46:00;;;;;;;16.50;9.07;;;2.70;99.90;;;;;;5050088;28;20052;-81
2023/01/23 04:48:26;;;;;;;14.25;8.35;;;2.70;99.90;;;;;;5050485;28;20025;-80
2023/01/23 04:50:51;;;;;;;15.52;8.38;;;2.70;99.90;;;;;;5048946;28;20044;-81
2023/01/23 04:53:17;;;;;;;15.52;9.20;;;2.70;99.90;;;;;;5049721;28;20124;-80
2023/01/23 04:55:46;;;;;;;16.23;8.88;;;2.70;99.90;;;;;;5050438;28;20044;-80
2023/01/23 04:58:11;;;;;;;17.55;9.80;;;2.60;99.90;;;;;;5049616;28;20033;-81
2023/01/23 05:00:37;;;;;;;19.27;9.68;;;2.70;99.90;;;;;;5041800;28;20040;-81
2023/01/23 05:03:03;;;;;;;16.75;8.85;;;2.60;99.90;;;;;;5048104;28;20056;-80
2023/01/23 05:05:31;;;;;;;18.38;9.50;;;2.60;99.90;;;;;;5042046;28;20041;-80
2023/01/23 05:07:56;;;;;;;15.38;8.85;;;2.60;99.90;;;;;;5049177;28;20112;-81
2023/01/23 05:10:22;;;;;;;17.58;9.57;;;2.60;99.90;;;;;;5047923;28;20603;-80
2023/01/23 05:12:48;;;;;;;15.63;8.65;;;2.60;99.90;;;;;;5044124;28;20041;-80
2023/01/23 05:15:14;;;;;;;16.50;9.02;;;2.60;99.90;;;;;;5043488;28;20041;-80
2023/01/23 05:17:39;;;;;;;16.45;8.27;;;2.60;99.90;;;;;;5048556;28;20048;-80
2023/01/23 05:20:05;;;;;;;16.45;8.40;;;2.60;99.90;;;;;;5048647;28;20040;-80
2023/01/23 05:22:32;;;;;;;17.17;8.27;;;2.60;99.90;;;;;;5049407;28;20057;-81
2023/01/23 05:24:58;;;;;;;16.70;9.00;;;2.60;99.90;;;;;;5028873;28;20398;-80
2023/01/23 05:27:23;;;;;;;17.25;7.97;;;2.60;99.90;;;;;;5044552;28;20511;-81
2023/01/23 05:29:49;;;;;;;15.15;7.28;;;2.60;99.90;;;;;;5045314;28;20045;-80
2023/01/23 05:32:15;;;;;;;16.38;7.13;;;2.60;99.90;;;;;;5045906;28;20032;-80
2023/01/23 05:34:40;;;;;;;14.43;8.10;;;2.60;99.90;;;;;;5050371;28;20037;-80
2023/01/23 05:37:06;;;;;;;17.33;8.30;;;2.60;99.90;;;;;;5043665;28;20051;-80
2023/01/23 05:39:32;;;;;;;15.43;8.23;;;2.60;99.90;;;;;;5046073;28;20090;-80
2023/01/23 05:41:58;;;;;;;16.25;8.13;;;2.60;99.90;;;;;;5046343;28;20036;-80
2023/01/23 05:44:24;;;;;;;12.43;7.15;;;2.60;99.90;;;;;;5061645;28;20041;-80
2023/01/23 05:46:49;;;;;;;12.50;6.80;;;2.60;99.90;;;;;;5047533;28;20459;-80
2023/01/23 05:49:15;;;;;;;14.18;7.75;;;3.20;99.90;;;;;;5039784;28;20036;-80
2023/01/23 05:51:41;;;;;;;15.75;7.47;;;2.60;99.90;;;;;;5048511;28;20661;-80
2023/01/23 05:54:08;;;;;;;13.27;8.35;;;2.60;99.90;;;;;;5046611;28;20488;-80
2023/01/23 05:56:34;;;;;;;14.70;7.38;;;2.60;99.90;;;;;;5044121;28;20435;-80
2023/01/23 05:59:00;;;;;;;18.30;8.25;;;2.60;99.90;;;;;;5043747;28;20519;-80
2023/01/23 06:01:26;;;;;;;14.35;7.95;;;2.60;99.90;;;;;;5047119;28;20102;-81
2023/01/23 06:03:51;;;;;;;18.50;8.32;;;2.60;99.90;;;;;;5031736;28;20520;-81
2023/01/23 06:06:17;;;;;;;12.57;7.57;;;2.50;99.90;;;;;;5043995;28;20610;-80
2023/01/23 06:08:43;;;;;;;17.15;7.85;;;2.50;99.90;;;;;;5049220;28;20048;-79
2023/01/23 06:11:08;;;;;;;14.18;8.00;;;2.50;99.90;;;;;;5048827;28;20079;-80
2023/01/23 06:13:35;;;;;;;15.80;7.43;;;2.50;99.90;;;;;;5041210;28;20040;-81
2023/01/23 06:16:01;;;;;;;14.82;8.80;;;2.40;99.90;;;;;;5050083;28;20036;-81
2023/01/23 06:18:27;;;;;;;18.33;8.18;;;2.50;99.90;;;;;;5048925;28;20566;-81
2023/01/23 06:20:59;;;;;;;14.13;7.88;;;2.40;99.90;;;;;;5053603;28;20100;-80
2023/01/23 06:23:25;;;;;;;16.25;9.00;;;2.40;99.90;;;;;;5034215;28;20099;-80
2023/01/23 06:25:51;;;;;;;13.48;8.40;;;2.40;99.90;;;;;;5061375;28;20044;-81
2023/01/23 06:28:16;;;;;;;16.67;8.50;;;2.50;99.90;;;;;;5031700;28;20039;-80
2023/01/23 06:30:42;;;;;;;16.60;9.00;;;3.10;99.90;;;;;;5047779;28;20041;-81
2023/01/23 06:33:08;;;;;;;14.98;8.60;;;2.40;99.90;;;;;;5048769;28;20040;-82
2023/01/23 06:35:33;;;;;;;16.40;8.55;;;2.50;99.90;;;;;;5046442;28;20041;-81
2023/01/23 06:37:59;;;;;;;15.95;8.07;;;2.50;99.90;;;;;;5054416;28;20480;-81
2023/01/23 06:40:25;;;;;;;17.13;8.80;;;2.50;99.90;;;;;;5039058;28;20032;-82
2023/01/23 06:42:53;;;;;;;13.02;7.88;;;2.50;99.90;;;;;;5020987;28;20103;-81
2023/01/23 06:45:19;;;;;;;15.85;8.48;;;2.50;99.90;;;;;;5042161;28;20032;-82
2023/01/23 06:47:44;;;;;;;13.68;8.48;;;2.50;99.90;;;;;;5043723;28;20087;-81
2023/01/23 06:50:10;;;;;;;16.67;8.80;;;2.50;99.90;;;;;;5045917;28;20036;-81
2023/01/23 06:52:36;;;;;;;18.88;8.75;;;2.50;99.90;;;;;;5046152;28;20460;-82
2023/01/23 06:55:02;;;;;;;19.35;9.27;;;2.90;99.90;;;;;;5040661;28;20391;-82
2023/01/23 06:57:27;;;;;;;19.90;8.55;;;2.50;99.90;;;;;;5030843;28;20053;-82
2023/01/23 06:59:53;;;;;;;16.27;8.20;;;2.50;99.90;;;;;;5047023;28;20534;-81
2023/01/23 07:02:19;;;;;;;16.83;8.48;;;3.00;99.90;;;;;;5038188;28;20075;-81
2023/01/23 07:04:44;;;;;;;14.55;7.93;;;2.50;99.90;;;;;;5044741;28;20037;-81
2023/01/23 07:07:10;;;;;;;17.52;8.48;;;2.50;99.90;;;;;;5037031;28;20041;-81
2023/01/23 07:09:35;;;;;;;14.60;7.35;;;2.50;99.90;;;;;;5041093;28;20029;-80
2023/01/23 07:12:01;;;;;;;16.42;7.82;;;2.50;99.90;;;;;;5045678;28;20167;-81
2023/01/23 07:14:27;;;;;;;20.10;8.57;;;2.50;99.90;;;;;;5047828;28;20064;-83
2023/01/23 07:16:54;;;;;;;13.85;7.60;;;2.50;99.90;;;;;;5042689;28;20072;-83
2023/01/23 07:19:20;;;;;;;18.63;8.65;;;3.00;99.90;;;;;;5047847;28;20111;-82
2023/01/23 07:21:47;;;;;;;17.35;9.25;;;2.50;99.90;;;;;;5043620;28;20507;-82
2023/01/23 07:24:13;;;;;;;18.00;8.18;;;2.50;99.90;;;;;;5048479;28;20055;-82
2023/01/23 07:26:38;;;;;;;16.23;8.02;;;2.50;99.90;;;;;;5037791;28;20049;-82
2023/01/23 07:29:06;;;;;;;16.08;8.93;;;2.50;99.90;;;;;;5043956;28;20122;-81
2023/01/23 07:31:31;;;;;;;17.73;8.32;;;2.50;99.90;;;;;;5046425;28;20067;-81
2023/01/23 07:33:57;;;;;;;18.63;8.35;;;2.50;99.90;;;;;;5040271;28;20468;-81
2023/01/23 07:36:22;;;;;;;16.05;7.93;;;2.50;99.90;;;;;;5044430;28;20049;-81
2023/01/23 07:38:48;;;;;;;12.73;7.15;;;2.50;99.90;;;;;;5041590;28;20041;-81
2023/01/23 07:41:13;;;;;;;17.63;8.20;;;2.50;99.90;;;;;;5047754;28;20434;-81
2023/01/23 07:43:39;;;;;;;13.48;8.15;;;2.50;99.90;;;;;;5048355;28;20037;-81
2023/01/23 07:46:04;;;;;;;14.43;7.55;;;2.50;99.90;;;;;;5018077;28;20077;-81
2023/01/23 07:48:30;;;;;;;17.40;7.88;;;2.50;99.90;;;;;;5059875;28;20045;-82
2023/01/23 07:50:56;;;;;;;16.33;8.07;;;2.50;99.90;;;;;;5048793;28;20495;-81
2023/01/23 07:53:21;;;;;;;14.82;7.60;;;2.50;99.90;;;;;;5049095;28;20044;-81
2023/01/23 07:55:47;;;;;;;14.40;7.28;;;2.50;99.90;;;;;;5039704;28;20084;-81
2023/01/23 07:58:13;;;;;;;13.35;7.35;;;2.50;99.90;;;;;;5038492;28;20051;-81
2023/01/23 08:00:40;;;;;;;14.27;6.88;;;2.60;99.90;;;;;;5045981;28;20048;-80
2023/01/23 08:03:06;;;;;;;16.75;7.97;;;2.60;99.90;;;;;;5037323;28;20037;-80
2023/01/23 08:05:31;;;;;;;15.35;7.05;;;2.60;99.90;;;;;;5049488;28;20040;-83
2023/01/23 08:07:57;;;;;;;13.02;6.68;;;2.60;99.90;;;;;;5028304;28;20036;-82
2023/01/23 08:10:22;;;;;;;16.55;8.20;;;2.60;99.90;;;;;;5034211;28;20128;-82
2023/01/23 08:12:48;;;;;;;16.42;7.88;;;2.60;99.90;;;;;;5062807;28;20118;-82
2023/01/23 08:15:14;;;;;;;14.52;7.55;;;2.60;99.90;;;;;;5048138;28;20115;-82
2023/01/23 08:17:39;;;;;;;15.48;7.03;;;2.60;99.90;;;;;;5052525;28;20048;-83
2023/01/23 08:20:05;;;;;;;16.30;7.50;;;2.60;99.90;;;;;;5051625;28;20041;-82
2023/01/23 08:22:32;;;;;;;13.35;6.80;;;2.60;99.90;;;;;;5045811;28;20423;-82
2023/01/23 08:24:57;;;;;;;12.30;6.90;;;2.60;99.90;;;;;;5050492;28;20045;-82
2023/01/23 08:27:23;;;;;;;13.60;7.28;;;2.60;99.90;;;;;;5048799;28;20044;-82
2023/01/23 08:29:48;;;;;;;12.82;7.05;;;2.60;99.90;;;;;;5049137;28;20059;-83
2023/01/23 08:32:14;;;;;;;12.18;7.38;;;2.70;99.90;;;;;;5052150;28;20064;-82
2023/01/23 08:34:40;;;;;;;17.40;7.65;;;2.70;99.90;;;;;;5051774;28;20040;-83
2023/01/23 08:37:05;;;;;;;14.93;6.90;;;2.70;99.90;;;;;;5051782;28;20037;-83
2023/01/23 08:39:31;;;;;;;11.52;6.18;;;2.70;99.90;;;;;;5039842;28;20038;-82
2023/01/23 08:41:56;;;;;;;12.15;6.63;;;2.70;99.90;;;;;;5042675;28;20068;-82
2023/01/23 08:44:23;;;;;;;11.48;6.22;;;2.80;99.90;;;;;;5044186;28;20072;-82
2023/01/23 08:46:48;;;;;;;12.82;7.45;;;2.80;99.90;;;;;;5041465;28;20041;-82
2023/01/23 08:49:14;;;;;;;15.90;7.72;;;2.80;99.90;;;;;;5050792;28;20099;-82
2023/01/23 08:51:40;;;;;;;11.70;6.47;;;2.80;99.90;;;;;;5046672;28;20045;-82
2023/01/23 08:54:05;;;;;;;15.75;7.47;;;2.80;99.90;;;;;;5043942;28;20430;-82
2023/01/23 08:56:31;;;;;;;13.38;7.10;;;2.90;99.90;;;;;;5046413;28;20043;-82
2023/01/23 08:58:56;;;;;;;17.05;7.00;;;2.90;99.90;;;;;;5049731;28;20036;-82
2023/01/23 09:01:24;;;;;;;13.23;7.35;;;2.00;99.90;;;;;;5040193;28;20990;-82
2023/01/23 09:03:50;;;;;;;13.32;7.40;;;2.90;99.90;;;;;;5044528;28;20036;-82
2023/01/23 09:06:18;;;;;;;13.10;6.78;;;3.00;99.90;;;;;;5044447;28;20090;-81
2023/01/23 09:08:44;;;;;;;11.70;6.65;;;3.00;99.90;;;;;;5049841;28;20067;-79
2023/01/23 09:11:11;;;;;;;11.68;6.70;;;3.00;99.90;;;;;;5046065;28;20045;-80
2023/01/23 09:13:37;;;;;;;24.67;7.60;;;3.10;99.90;;;;;;5050677;28;20033;-80
2023/01/23 09:16:04;;;;;;;10.80;5.93;;;3.00;99.90;;;;;;5038070;28;20069;-81
2023/01/23 09:18:29;;;;;;;11.40;5.72;;;3.10;99.90;;;;;;5045278;28;20116;-80
2023/01/23 09:20:55;;;;;;;12.90;6.53;;;3.10;99.90;;;;;;5051260;28;21054;-80
2023/01/23 09:23:22;;;;;;;9.98;5.55;;;4.20;99.90;;;;;;5049259;28;20037;-80
2023/01/23 09:25:48;;;;;;;12.35;6.10;;;3.10;99.90;;;;;;5042546;28;20047;-80
2023/01/23 09:28:13;;;;;;;10.75;5.38;;;3.10;99.90;;;;;;5050772;28;20044;-80
2023/01/23 09:30:39;;;;;;;12.68;6.47;;;3.20;99.90;;;;;;5041703;28;21095;-80
2023/01/23 09:33:05;;;;;;;14.55;5.95;;;3.20;99.90;;;;;;5040021;28;20091;-80
2023/01/23 09:35:31;;;;;;;9.25;4.90;;;3.30;99.90;;;;;;5037655;28;20045;-79
2023/01/23 09:38:00;;;;;;;9.45;5.40;;;3.30;99.90;;;;;;5046009;28;20044;-80
2023/01/23 09:40:30;;;;;;;9.43;5.63;;;3.30;99.90;;;;;;5050242;28;20100;-80
2023/01/23 09:43:28;;;;;;;11.60;5.50;;;3.40;99.90;;;;;;5045513;28;20082;-79
2023/01/23 09:46:27;;;;;;;13.18;6.25;;;3.40;99.90;;;;;;5026653;28;20114;-80
2023/01/23 09:49:12;;;;;;;10.30;5.40;;;3.40;99.90;;;;;;5049301;28;20096;-79
2023/01/23 09:51:57;;;;;;;11.38;5.95;;;3.40;99.90;;;;;;5050334;28;20739;-80
2023/01/23 09:54:38;;;;;;;10.32;5.60;;;3.50;99.90;;;;;;5042848;28;20515;-80
2023/01/23 09:57:12;;;;;;;8.70;5.35;;;3.50;99.90;;;;;;5045317;28;20045;-80
2023/01/23 09:59:39;;;;;;;12.45;7.07;;;3.50;99.90;;;;;;5050605;28;20060;-80
2023/01/23 10:02:18;;;;;;;8.98;5.15;;;3.50;99.90;;;;;;5050239;28;20076;-80
2023/01/23 10:04:48;;;;;;;9.85;5.70;;;3.50;99.90;;;;;;5045643;28;20098;-80
2023/01/23 10:07:26;;;;;;;9.65;5.30;;;3.60;99.90;;;;;;5044467;28;20083;-79
2023/01/23 10:10:27;;;;;;;8.48;4.80;;;3.60;99.90;;;;;;5040129;28;20080;-79
2023/01/23 10:13:01;;;;;;;8.57;5.43;;;3.60;99.90;;;;;;5038982;28;20091;-80
2023/01/23 10:16:09;;;;;;;11.57;6.15;;;3.60;99.90;;;;;;5041566;28;20098;-80
2023/01/23 10:18:40;;;;;;;9.48;5.88;;;3.70;99.90;;;;;;5038363;28;20040;-80
2023/01/23 10:21:27;;;;;;;11.70;5.38;;;3.70;99.90;;;;;;5050102;28;20033;-80
2023/01/23 10:24:35;;;;;;;10.48;5.82;;;3.70;99.90;;;;;;5041481;28;20064;-80
2023/01/23 10:27:17;;;;;;;10.45;5.70;;;3.80;99.90;;;;;;5041850;28;20110;-80
2023/01/23 10:29:49;;;;;;;10.18;5.43;;;3.80;99.90;;;;;;5041168;28;20044;-80
2023/01/23 10:32:28;;;;;;;10.57;6.00;;;3.80;99.90;;;;;;5043573;28;20055;-80
2023/01/23 10:35:11;;;;;;;10.00;6.13;;;3.80;99.90;;;;;;5049660;28;20080;-80
2023/01/23 10:38:00;;;;;;;12.63;6.20;;;3.90;99.90;;;;;;5042012;28;20037;-80
2023/01/23 10:43:12;;;;;;;10.60;6.22;;;3.90;99.90;;;;;;5042968;28;20041;-80
2023/01/23 10:45:38;;;;;;;13.07;6.03;;;3.90;99.90;;;;;;5046101;28;20068;-81
2023/01/23 10:48:28;;;;;;;10.52;6.13;;;3.90;99.90;;;;;;5048499;28;20040;-81
2023/01/23 10:50:54;;;;;;;12.60;6.38;;;3.90;99.90;;;;;;5047891;28;20052;-80
2023/01/23 10:53:21;;;;;;;11.55;6.25;;;4.50;99.90;;;;;;5038908;28;20440;-81
2023/01/23 10:55:49;;;;;;;14.20;6.38;;;3.90;99.90;;;;;;5044862;28;20463;-80
2023/01/23 10:58:30;;;;;;;12.20;7.28;;;3.90;99.90;;;;;;5041548;28;20087;-80
2023/01/23 11:00:56;;;;;;;13.35;7.40;;;3.90;99.90;;;;;;5038481;28;20037;-80
2023/01/23 11:03:37;;;;;;;14.40;7.65;;;3.90;99.90;;;;;;5043193;28;20061;-80
2023/01/23 11:06:15;;;;;;;10.63;6.32;;;3.90;99.90;;;;;;5039369;28;20110;-80
2023/01/23 11:08:55;;;;;;;12.00;6.68;;;3.90;99.90;;;;;;5042444;28;20040;-80
2023/01/23 11:11:26;;;;;;;11.63;6.00;;;4.00;99.90;;;;;;5035988;28;20094;-80
2023/01/23 11:14:15;;;;;;;14.80;7.55;;;4.00;99.90;;;;;;5044660;28;20050;-80
2023/01/23 11:16:42;;;;;;;11.82;7.40;;;4.00;99.90;;;;;;5048744;28;20037;-80
2023/01/23 11:19:07;;;;;;;11.73;7.28;;;4.00;99.90;;;;;;5046504;28;20037;-80
2023/01/23 11:21:36;;;;;;;13.60;7.47;;;4.00;99.90;;;;;;5043644;28;20087;-80
2023/01/23 11:24:27;;;;;;;11.93;6.88;;;4.00;99.90;;;;;;5041783;28;20128;-81
2023/01/23 11:27:02;;;;;;;13.90;7.28;;;4.00;99.90;;;;;;5036044;28;20091;-81
2023/01/23 11:29:29;;;;;;;14.05;7.15;;;4.10;99.90;;;;;;5046779;28;20045;-80
2023/01/23 11:32:10;;;;;;;14.00;7.78;;;4.10;99.90;;;;;;5048409;28;20041;-80
2023/01/23 11:34:41;;;;;;;14.52;7.43;;;4.10;99.90;;;;;;5057773;28;20041;-80
2023/01/23 11:37:26;;;;;;;12.10;7.53;;;5.00;99.90;;;;;;5040294;28;20041;-80
2023/01/23 11:40:06;;;;;;;10.70;7.28;;;4.20;99.90;;;;;;5040233;28;20079;-80
2023/01/23 11:42:34;;;;;;;12.25;7.32;;;4.20;99.90;;;;;;5052015;28;20033;-80
2023/01/23 11:45:00;;;;;;;15.40;8.07;;;4.20;99.90;;;;;;5052291;28;20043;-80
2023/01/23 11:47:46;;;;;;;12.27;7.60;;;4.20;99.90;;;;;;5045337;28;20123;-80
2023/01/23 11:50:15;;;;;;;12.52;7.05;;;4.30;99.90;;;;;;5042459;28;20045;-81
2023/01/23 11:53:16;;;;;;;13.63;7.97;;;4.50;99.90;;;;;;5043602;28;20132;-81
2023/01/23 11:55:51;;;;;;;13.95;7.50;;;4.30;99.90;;;;;;5045605;28;20403;-81
2023/01/23 11:58:26;;;;;;;13.50;7.93;;;4.30;99.90;;;;;;5050378;28;20083;-81
2023/01/23 12:01:29;;;;;;;13.93;7.22;;;4.30;99.90;;;;;;5041544;28;20037;-81
2023/01/23 12:04:10;;;;;;;13.80;7.35;;;4.30;99.90;;;;;;5061489;28;20041;-81
2023/01/23 12:07:01;;;;;;;13.88;7.85;;;4.30;99.90;;;;;;5050794;28;20037;-81
2023/01/23 12:09:38;;;;;;;14.30;7.53;;;4.30;99.90;;;;;;5046719;28;20056;-81
2023/01/23 12:12:38;;;;;;;11.02;7.60;;;4.30;99.90;;;;;;5047746;28;20051;-81
2023/01/23 12:15:25;;;;;;;17.42;8.30;;;4.20;99.90;;;;;;5049520;28;20056;-81
2023/01/23 12:18:15;;;;;;;18.00;9.15;;;4.20;99.90;;;;;;5040045;28;20040;-81
2023/01/23 12:20:55;;;;;;;14.13;8.20;;;4.20;99.90;;;;;;5049045;28;20407;-81
2023/01/23 12:23:52;;;;;;;14.57;7.97;;;4.20;99.90;;;;;;5046347;28;20064;-81
2023/01/23 12:26:23;;;;;;;14.95;8.77;;;4.20;99.90;;;;;;5046691;28;20404;-81
2023/01/23 12:29:08;;;;;;;14.88;8.40;;;4.90;99.90;;;;;;5051648;28;20510;-81
2023/01/23 12:31:52;;;;;;;17.02;8.85;;;4.20;99.90;;;;;;5039715;28;20049;-81
2023/01/23 12:34:37;;;;;;;17.98;9.55;;;5.50;99.90;;;;;;5031647;28;20159;-81
2023/01/23 12:37:09;;;;;;;;;;;4.20;99.90;;;;;;5049078;28;20047;-81
2023/01/23 12:40:11;;;;;;;15.82;9.18;;;4.20;99.90;;;;;;5049426;28;20011;-80
2023/01/23 12:42:50;;;;;;;15.57;9.00;;;4.20;99.90;;;;;;5040704;28;20044;-81
2023/01/23 12:45:25;;;;;;;17.90;9.70;;;4.20;99.90;;;;;;5046281;28;20111;-81
2023/01/23 12:48:16;;;;;;;17.77;9.48;;;4.20;99.90;;;;;;5047947;28;20033;-80
2023/01/23 12:50:49;;;;;;;16.88;9.30;;;4.20;99.90;;;;;;5051796;28;20049;-81
2023/01/23 12:53:18;;;;;;;16.55;9.05;;;4.20;99.90;;;;;;5043998;28;20108;-81
2023/01/23 12:56:03;;;;;;;19.13;9.95;;;4.20;99.90;;;;;;5046223;28;20080;-81
2023/01/23 12:58:34;;;;;;;18.50;9.70;;;4.20;99.90;;;;;;5045966;28;20108;-82
2023/01/23 13:01:08;;;;;;;17.75;9.63;;;4.20;99.90;;;;;;5050595;28;20860;-81
2023/01/23 13:03:33;;;;;;;;;;;4.20;99.90;;;;;;5049000;28;20055;-81
2023/01/23 13:05:59;;;;;;;15.40;8.93;;;4.20;99.90;;;;;;5042366;28;19916;-81
2023/01/23 13:08:49;;;;;;;16.73;9.88;;;4.20;99.90;;;;;;5038556;28;20507;-81
2023/01/23 13:11:39;;;;;;;18.13;9.60;;;4.20;99.90;;;;;;5042577;28;20098;-83